sensor_id;sensor_type;location;lat;lon;timestamp;temperature;humidity
21592;DHT22;10958;50.892;3.992;2023-02-15T00:00:26;6.40;99.90
21592;DHT22;10958;50.892;3.992;2023-02-15T00:02:52;6.40;99.90
21592;DHT22;10958;50.892;3.992;2023-02-15T00:05:18;6.40;99.90
21592;DHT22;10958;50.892;3.992;2023-02-15T00:07:46;6.40;99.90
21592;DHT22;10958;50.892;3.992;2023-02-15T00:10:11;6.50;99.90
21592;DHT22;10958;50.892;3.992;2023-02-15T00:12:40;6.60;99.90
21592;DHT22;10958;50.892;3.992;2023-02-15T00:15:07;6.60;99.90
21592;DHT22;10958;50.892;3.992;2023-02-15T00:17:32;6.60;99.90
21592;DHT22;10958;50.892;3.992;2023-02-15T00:19:58;6.50;99.90
21592;DHT22;10958;50.892;3.992;2023-02-15T00:22:25;6.50;99.90
21592;DHT22;10958;50.892;3.992;2023-02-15T00:24:54;6.50;99.90
21592;DHT22;10958;50.892;3.992;2023-02-15T00:27:19;6.40;99.90
21592;DHT22;10958;50.892;3.992;2023-02-15T00:29:46;6.40;99.90
21592;DHT22;10958;50.892;3.992;2023-02-15T00:32:12;6.50;99.90
21592;DHT22;10958;50.892;3.992;2023-02-15T00:34:41;6.50;99.90
21592;DHT22;10958;50.892;3.992;2023-02-15T00:37:07;6.50;99.90
21592;DHT22;10958;50.892;3.992;2023-02-15T00:39:34;6.40;99.90
21592;DHT22;10958;50.892;3.992;2023-02-15T00:42:00;6.20;99.90
21592;DHT22;10958;50.892;3.992;2023-02-15T00:44:26;6.00;99.90
21592;DHT22;10958;50.892;3.992;2023-02-15T00:46:54;5.80;99.90
21592;DHT22;10958;50.892;3.992;2023-02-15T00:49:20;5.80;99.90
21592;DHT22;10958;50.892;3.992;2023-02-15T00:51:46;5.70;99.90
21592;DHT22;10958;50.892;3.992;2023-02-15T00:54:17;5.90;99.90
21592;DHT22;10958;50.892;3.992;2023-02-15T00:56:43;6.00;99.90
21592;DHT22;10958;50.892;3.992;2023-02-15T00:59:09;6.10;99.90
21592;DHT22;10958;50.892;3.992;2023-02-15T01:01:35;6.10;99.90
21592;DHT22;10958;50.892;3.992;2023-02-15T01:04:03;6.10;99.90
21592;DHT22;10958;50.892;3.992;2023-02-15T01:06:29;6.10;99.90
21592;DHT22;10958;50.892;3.992;2023-02-15T01:08:55;6.00;99.90
21592;DHT22;10958;50.892;3.992;2023-02-15T01:11:22;6.10;99.90
21592;DHT22;10958;50.892;3.992;2023-02-15T01:13:53;6.20;99.90
21592;DHT22;10958;50.892;3.992;2023-02-15T01:16:20;6.30;99.90
21592;DHT22;10958;50.892;3.992;2023-02-15T01:18:46;6.40;99.90
21592;DHT22;10958;50.892;3.992;2023-02-15T01:21:15;6.40;99.90
21592;DHT22;10958;50.892;3.992;2023-02-15T01:23:42;6.50;99.90
21592;DHT22;10958;50.892;3.992;2023-02-15T01:26:09;6.60;99.90
21592;DHT22;10958;50.892;3.992;2023-02-15T01:28:35;6.70;99.90
21592;DHT22;10958;50.892;3.992;2023-02-15T01:31:09;6.70;99.90
21592;DHT22;10958;50.892;3.992;2023-02-15T01:33:36;6.60;99.90
21592;DHT22;10958;50.892;3.992;2023-02-15T01:36:04;6.40;99.90
21592;DHT22;10958;50.892;3.992;2023-02-15T01:38:30;6.30;99.90
21592;DHT22;10958;50.892;3.992;2023-02-15T01:40:55;6.20;99.90
21592;DHT22;10958;50.892;3.992;2023-02-15T01:43:49;6.30;99.90
21592;DHT22;10958;50.892;3.992;2023-02-15T01:46:16;6.30;99.90
21592;DHT22;10958;50.892;3.992;2023-02-15T01:49:16;6.20;99.90
21592;DHT22;10958;50.892;3.992;2023-02-15T01:51:46;6.10;99.90
21592;DHT22;10958;50.892;3.992;2023-02-15T01:54:23;6.00;99.90
21592;DHT22;10958;50.892;3.992;2023-02-15T01:56:52;6.00;99.90
21592;DHT22;10958;50.892;3.992;2023-02-15T01:59:21;5.90;99.90
21592;DHT22;10958;50.892;3.992;2023-02-15T02:01:51;5.90;99.90
21592;DHT22;10958;50.892;3.992;2023-02-15T02:04:25;5.70;99.90
21592;DHT22;10958;50.892;3.992;2023-02-15T02:06:54;5.70;99.90
21592;DHT22;10958;50.892;3.992;2023-02-15T02:09:20;5.70;99.90
21592;DHT22;10958;50.892;3.992;2023-02-15T02:11:47;5.80;99.90
21592;DHT22;10958;50.892;3.992;2023-02-15T02:14:16;5.80;99.90
21592;DHT22;10958;50.892;3.992;2023-02-15T02:22:53;5.50;99.90
21592;DHT22;10958;50.892;3.992;2023-02-15T02:33:54;5.30;99.90
21592;DHT22;10958;50.892;3.992;2023-02-15T02:39:07;5.30;99.90
21592;DHT22;10958;50.892;3.992;2023-02-15T02:45:03;4.70;99.90
21592;DHT22;10958;50.892;3.992;2023-02-15T02:47:33;4.60;99.90
21592;DHT22;10958;50.892;3.992;2023-02-15T02:50:05;4.80;99.90
21592;DHT22;10958;50.892;3.992;2023-02-15T02:52:50;4.90;99.90
21592;DHT22;10958;50.892;3.992;2023-02-15T03:00:51;5.10;99.90
21592;DHT22;10958;50.892;3.992;2023-02-15T03:03:25;5.10;99.90
21592;DHT22;10958;50.892;3.992;2023-02-15T03:05:56;5.10;99.90
21592;DHT22;10958;50.892;3.992;2023-02-15T03:08:24;5.10;99.90
21592;DHT22;10958;50.892;3.992;2023-02-15T03:10:55;5.20;99.90
21592;DHT22;10958;50.892;3.992;2023-02-15T03:13:22;5.10;99.90
21592;DHT22;10958;50.892;3.992;2023-02-15T03:15:50;5.10;99.90
21592;DHT22;10958;50.892;3.992;2023-02-15T03:18:47;4.80;99.90
21592;DHT22;10958;50.892;3.992;2023-02-15T03:21:21;4.80;99.90
21592;DHT22;10958;50.892;3.992;2023-02-15T03:24:02;4.90;99.90
21592;DHT22;10958;50.892;3.992;2023-02-15T03:26:30;4.90;99.90
21592;DHT22;10958;50.892;3.992;2023-02-15T03:28:58;4.80;99.90
21592;DHT22;10958;50.892;3.992;2023-02-15T03:31:27;4.90;99.90
21592;DHT22;10958;50.892;3.992;2023-02-15T03:34:02;4.90;99.90
21592;DHT22;10958;50.892;3.992;2023-02-15T03:41:37;5.00;99.90
21592;DHT22;10958;50.892;3.992;2023-02-15T03:44:13;5.00;99.90
21592;DHT22;10958;50.892;3.992;2023-02-15T03:46:48;5.00;99.90
21592;DHT22;10958;50.892;3.992;2023-02-15T03:51:56;4.90;99.90
21592;DHT22;10958;50.892;3.992;2023-02-15T03:54:29;5.00;99.90
21592;DHT22;10958;50.892;3.992;2023-02-15T03:57:17;5.00;99.90
21592;DHT22;10958;50.892;3.992;2023-02-15T04:00:17;4.80;99.90
21592;DHT22;10958;50.892;3.992;2023-02-15T04:03:39;4.80;99.90
21592;DHT22;10958;50.892;3.992;2023-02-15T04:06:05;4.70;99.90
21592;DHT22;10958;50.892;3.992;2023-02-15T04:08:31;4.60;99.90
21592;DHT22;10958;50.892;3.992;2023-02-15T04:11:16;4.70;99.90
21592;DHT22;10958;50.892;3.992;2023-02-15T04:13:41;4.80;99.90
21592;DHT22;10958;50.892;3.992;2023-02-15T04:16:07;4.80;99.90
21592;DHT22;10958;50.892;3.992;2023-02-15T04:18:37;4.80;99.90
21592;DHT22;10958;50.892;3.992;2023-02-15T04:21:24;4.70;99.90
21592;DHT22;10958;50.892;3.992;2023-02-15T04:24:09;4.60;99.90
21592;DHT22;10958;50.892;3.992;2023-02-15T04:26:53;4.60;99.90
21592;DHT22;10958;50.892;3.992;2023-02-15T04:29:20;4.50;99.90
21592;DHT22;10958;50.892;3.992;2023-02-15T04:31:46;4.60;99.90
21592;DHT22;10958;50.892;3.992;2023-02-15T04:34:13;4.70;99.90
21592;DHT22;10958;50.892;3.992;2023-02-15T04:36:39;4.60;99.90
21592;DHT22;10958;50.892;3.992;2023-02-15T04:39:05;4.70;99.90
21592;DHT22;10958;50.892;3.992;2023-02-15T04:41:31;4.70;99.90
21592;DHT22;10958;50.892;3.992;2023-02-15T04:43:57;4.60;99.90
21592;DHT22;10958;50.892;3.992;2023-02-15T04:46:23;4.70;99.90
21592;DHT22;10958;50.892;3.992;2023-02-15T04:48:49;4.70;99.90
21592;DHT22;10958;50.892;3.992;2023-02-15T04:51:16;4.70;99.90
21592;DHT22;10958;50.892;3.992;2023-02-15T04:53:42;4.80;99.90
21592;DHT22;10958;50.892;3.992;2023-02-15T04:56:08;4.80;99.90
21592;DHT22;10958;50.892;3.992;2023-02-15T04:58:33;4.90;99.90
21592;DHT22;10958;50.892;3.992;2023-02-15T05:01:00;4.90;99.90
21592;DHT22;10958;50.892;3.992;2023-02-15T05:03:28;4.90;99.90
21592;DHT22;10958;50.892;3.992;2023-02-15T05:05:56;4.80;99.90
21592;DHT22;10958;50.892;3.992;2023-02-15T05:08:22;4.60;99.90
21592;DHT22;10958;50.892;3.992;2023-02-15T05:10:48;4.50;99.90
21592;DHT22;10958;50.892;3.992;2023-02-15T05:13:14;4.40;99.90
21592;DHT22;10958;50.892;3.992;2023-02-15T05:15:40;4.40;99.90
21592;DHT22;10958;50.892;3.992;2023-02-15T05:18:08;4.40;99.90
21592;DHT22;10958;50.892;3.992;2023-02-15T05:20:36;4.20;99.90
21592;DHT22;10958;50.892;3.992;2023-02-15T05:23:02;4.20;99.90
21592;DHT22;10958;50.892;3.992;2023-02-15T05:25:27;4.10;99.90
21592;DHT22;10958;50.892;3.992;2023-02-15T05:28:12;4.30;99.90
21592;DHT22;10958;50.892;3.992;2023-02-15T05:33:22;4.50;99.90
21592;DHT22;10958;50.892;3.992;2023-02-15T05:35:48;4.50;99.90
21592;DHT22;10958;50.892;3.992;2023-02-15T05:38:13;4.30;99.90
21592;DHT22;10958;50.892;3.992;2023-02-15T05:40:43;4.00;99.90
21592;DHT22;10958;50.892;3.992;2023-02-15T05:43:09;3.90;99.90
21592;DHT22;10958;50.892;3.992;2023-02-15T05:45:35;3.90;99.90
21592;DHT22;10958;50.892;3.992;2023-02-15T05:48:03;3.90;99.90
21592;DHT22;10958;50.892;3.992;2023-02-15T05:50:29;3.80;99.90
21592;DHT22;10958;50.892;3.992;2023-02-15T05:52:54;3.70;99.90
21592;DHT22;10958;50.892;3.992;2023-02-15T05:55:22;3.70;99.90
21592;DHT22;10958;50.892;3.992;2023-02-15T05:57:48;3.80;99.90
21592;DHT22;10958;50.892;3.992;2023-02-15T06:00:15;3.80;99.90
21592;DHT22;10958;50.892;3.992;2023-02-15T06:02:41;3.70;99.90
21592;DHT22;10958;50.892;3.992;2023-02-15T06:05:07;3.70;99.90
21592;DHT22;10958;50.892;3.992;2023-02-15T06:07:33;3.50;99.90
21592;DHT22;10958;50.892;3.992;2023-02-15T06:10:01;3.70;99.90
21592;DHT22;10958;50.892;3.992;2023-02-15T06:12:27;3.70;99.90
21592;DHT22;10958;50.892;3.992;2023-02-15T06:14:53;3.90;99.90
21592;DHT22;10958;50.892;3.992;2023-02-15T06:17:18;3.80;99.90
21592;DHT22;10958;50.892;3.992;2023-02-15T06:19:44;3.80;99.90
21592;DHT22;10958;50.892;3.992;2023-02-15T06:22:10;3.90;99.90
21592;DHT22;10958;50.892;3.992;2023-02-15T06:24:39;3.80;99.90
21592;DHT22;10958;50.892;3.992;2023-02-15T06:27:05;3.90;99.90
21592;DHT22;10958;50.892;3.992;2023-02-15T06:29:31;3.90;99.90
21592;DHT22;10958;50.892;3.992;2023-02-15T06:31:57;3.90;99.90
21592;DHT22;10958;50.892;3.992;2023-02-15T06:34:22;3.90;99.90
21592;DHT22;10958;50.892;3.992;2023-02-15T06:36:48;4.00;99.90
21592;DHT22;10958;50.892;3.992;2023-02-15T06:39:14;3.70;99.90
21592;DHT22;10958;50.892;3.992;2023-02-15T06:41:40;3.80;99.90
21592;DHT22;10958;50.892;3.992;2023-02-15T06:44:06;3.80;99.90
21592;DHT22;10958;50.892;3.992;2023-02-15T06:46:34;3.70;99.90
21592;DHT22;10958;50.892;3.992;2023-02-15T06:49:03;3.90;99.90
21592;DHT22;10958;50.892;3.992;2023-02-15T06:51:29;4.00;99.90
21592;DHT22;10958;50.892;3.992;2023-02-15T06:53:55;4.20;99.90
21592;DHT22;10958;50.892;3.992;2023-02-15T06:56:21;4.00;99.90
21592;DHT22;10958;50.892;3.992;2023-02-15T06:58:47;4.10;99.90
21592;DHT22;10958;50.892;3.992;2023-02-15T07:01:15;4.20;99.90
21592;DHT22;10958;50.892;3.992;2023-02-15T07:03:41;4.00;99.90
21592;DHT22;10958;50.892;3.992;2023-02-15T07:06:09;3.90;99.90
21592;DHT22;10958;50.892;3.992;2023-02-15T07:08:36;4.10;99.90
21592;DHT22;10958;50.892;3.992;2023-02-15T07:11:03;4.00;99.90
21592;DHT22;10958;50.892;3.992;2023-02-15T07:13:47;4.00;99.90
21592;DHT22;10958;50.892;3.992;2023-02-15T07:16:13;4.10;99.90
21592;DHT22;10958;50.892;3.992;2023-02-15T07:18:39;4.10;99.90
21592;DHT22;10958;50.892;3.992;2023-02-15T07:21:06;4.20;99.90
21592;DHT22;10958;50.892;3.992;2023-02-15T07:23:35;4.50;99.90
21592;DHT22;10958;50.892;3.992;2023-02-15T07:26:01;4.60;99.90
21592;DHT22;10958;50.892;3.992;2023-02-15T07:28:27;4.80;99.90
21592;DHT22;10958;50.892;3.992;2023-02-15T07:30:53;5.00;99.90
21592;DHT22;10958;50.892;3.992;2023-02-15T07:33:19;5.00;99.90
21592;DHT22;10958;50.892;3.992;2023-02-15T07:35:55;4.80;99.90
21592;DHT22;10958;50.892;3.992;2023-02-15T07:38:24;4.70;99.90
21592;DHT22;10958;50.892;3.992;2023-02-15T07:40:50;4.60;99.90
21592;DHT22;10958;50.892;3.992;2023-02-15T07:43:19;4.00;99.90
21592;DHT22;10958;50.892;3.992;2023-02-15T07:45:45;3.90;99.90
21592;DHT22;10958;50.892;3.992;2023-02-15T07:48:10;3.90;99.90
21592;DHT22;10958;50.892;3.992;2023-02-15T07:50:37;4.20;99.90
21592;DHT22;10958;50.892;3.992;2023-02-15T07:53:03;4.40;99.90
21592;DHT22;10958;50.892;3.992;2023-02-15T07:55:29;4.50;99.90
21592;DHT22;10958;50.892;3.992;2023-02-15T07:57:55;4.80;99.90
21592;DHT22;10958;50.892;3.992;2023-02-15T08:00:22;4.70;99.90
21592;DHT22;10958;50.892;3.992;2023-02-15T08:02:59;4.80;99.90
21592;DHT22;10958;50.892;3.992;2023-02-15T08:05:42;4.90;99.90
21592;DHT22;10958;50.892;3.992;2023-02-15T08:08:08;5.10;99.90
21592;DHT22;10958;50.892;3.992;2023-02-15T08:10:35;5.30;99.90
21592;DHT22;10958;50.892;3.992;2023-02-15T08:13:20;5.40;99.90
21592;DHT22;10958;50.892;3.992;2023-02-15T08:15:50;5.50;99.90
21592;DHT22;10958;50.892;3.992;2023-02-15T08:18:15;5.50;99.90
21592;DHT22;10958;50.892;3.992;2023-02-15T08:20:41;5.60;99.90
21592;DHT22;10958;50.892;3.992;2023-02-15T08:23:07;5.70;99.90
21592;DHT22;10958;50.892;3.992;2023-02-15T08:25:32;5.70;99.90
21592;DHT22;10958;50.892;3.992;2023-02-15T08:27:58;5.70;99.90
21592;DHT22;10958;50.892;3.992;2023-02-15T08:30:24;5.80;99.90
21592;DHT22;10958;50.892;3.992;2023-02-15T08:32:49;6.10;99.90
21592;DHT22;10958;50.892;3.992;2023-02-15T08:35:17;6.20;99.90
21592;DHT22;10958;50.892;3.992;2023-02-15T08:37:43;6.10;99.90
21592;DHT22;10958;50.892;3.992;2023-02-15T08:40:09;6.10;99.90
21592;DHT22;10958;50.892;3.992;2023-02-15T08:42:38;6.20;99.90
21592;DHT22;10958;50.892;3.992;2023-02-15T08:45:06;6.10;99.90
21592;DHT22;10958;50.892;3.992;2023-02-15T08:47:37;6.20;99.90
21592;DHT22;10958;50.892;3.992;2023-02-15T08:50:03;6.40;99.90
21592;DHT22;10958;50.892;3.992;2023-02-15T08:52:29;6.40;99.90
21592;DHT22;10958;50.892;3.992;2023-02-15T08:54:55;6.80;99.90
21592;DHT22;10958;50.892;3.992;2023-02-15T08:57:21;7.30;99.90
21592;DHT22;10958;50.892;3.992;2023-02-15T08:59:47;7.30;99.90
21592;DHT22;10958;50.892;3.992;2023-02-15T09:02:12;7.80;99.90
21592;DHT22;10958;50.892;3.992;2023-02-15T09:04:38;8.20;99.90
21592;DHT22;10958;50.892;3.992;2023-02-15T09:07:06;8.70;99.90
21592;DHT22;10958;50.892;3.992;2023-02-15T09:09:32;8.90;99.90
21592;DHT22;10958;50.892;3.992;2023-02-15T09:11:58;9.10;99.90
21592;DHT22;10958;50.892;3.992;2023-02-15T09:14:24;9.20;99.90
21592;DHT22;10958;50.892;3.992;2023-02-15T09:16:52;9.50;99.90
21592;DHT22;10958;50.892;3.992;2023-02-15T09:19:19;9.90;99.90
21592;DHT22;10958;50.892;3.992;2023-02-15T09:21:46;9.60;99.90
21592;DHT22;10958;50.892;3.992;2023-02-15T09:24:14;9.90;99.90
21592;DHT22;10958;50.892;3.992;2023-02-15T09:26:45;10.40;99.90
21592;DHT22;10958;50.892;3.992;2023-02-15T09:29:11;10.30;99.90
21592;DHT22;10958;50.892;3.992;2023-02-15T09:31:40;10.40;99.90
21592;DHT22;10958;50.892;3.992;2023-02-15T09:34:11;10.10;99.90
21592;DHT22;10958;50.892;3.992;2023-02-15T09:36:38;9.70;99.90
21592;DHT22;10958;50.892;3.992;2023-02-15T09:39:09;10.00;99.90
21592;DHT22;10958;50.892;3.992;2023-02-15T10:01:47;10.90;99.90
21592;DHT22;10958;50.892;3.992;2023-02-15T10:15:25;12.20;99.90
21592;DHT22;10958;50.892;3.992;2023-02-15T10:18:16;12.10;99.90
21592;DHT22;10958;50.892;3.992;2023-02-15T10:24:01;12.20;99.90
21592;DHT22;10958;50.892;3.992;2023-02-15T10:29:15;11.50;99.90
21592;DHT22;10958;50.892;3.992;2023-02-15T10:31:49;11.20;99.90
21592;DHT22;10958;50.892;3.992;2023-02-15T10:34:26;11.30;99.90
21592;DHT22;10958;50.892;3.992;2023-02-15T10:37:12;11.30;99.90
21592;DHT22;10958;50.892;3.992;2023-02-15T10:40:18;11.40;99.90
21592;DHT22;10958;50.892;3.992;2023-02-15T10:51:14;10.50;99.90
21592;DHT22;10958;50.892;3.992;2023-02-15T11:06:42;9.60;99.90
21592;DHT22;10958;50.892;3.992;2023-02-15T11:09:13;9.40;99.90
21592;DHT22;10958;50.892;3.992;2023-02-15T11:11:48;9.40;99.90
21592;DHT22;10958;50.892;3.992;2023-02-15T11:14:47;9.50;99.90
21592;DHT22;10958;50.892;3.992;2023-02-15T11:17:21;9.70;99.90
21592;DHT22;10958;50.892;3.992;2023-02-15T11:19:58;9.90;99.90
21592;DHT22;10958;50.892;3.992;2023-02-15T11:22:30;10.20;99.90
21592;DHT22;10958;50.892;3.992;2023-02-15T11:24:58;10.10;99.90
21592;DHT22;10958;50.892;3.992;2023-02-15T11:27:31;10.10;99.90
21592;DHT22;10958;50.892;3.992;2023-02-15T11:30:04;10.00;99.90
21592;DHT22;10958;50.892;3.992;2023-02-15T11:32:43;9.90;99.90
21592;DHT22;10958;50.892;3.992;2023-02-15T11:40:27;10.20;99.90
21592;DHT22;10958;50.892;3.992;2023-02-15T11:43:00;10.40;99.90
21592;DHT22;10958;50.892;3.992;2023-02-15T11:45:32;10.50;99.90
21592;DHT22;10958;50.892;3.992;2023-02-15T11:48:02;10.50;99.90
21592;DHT22;10958;50.892;3.992;2023-02-15T11:50:33;10.40;99.90
21592;DHT22;10958;50.892;3.992;2023-02-15T11:53:02;10.40;99.90
21592;DHT22;10958;50.892;3.992;2023-02-15T11:55:30;10.50;99.90
21592;DHT22;10958;50.892;3.992;2023-02-15T11:58:15;10.80;99.90
21592;DHT22;10958;50.892;3.992;2023-02-15T12:00:46;10.70;99.90
21592;DHT22;10958;50.892;3.992;2023-02-15T12:03:18;10.60;99.90
21592;DHT22;10958;50.892;3.992;2023-02-15T12:05:52;10.50;99.90
21592;DHT22;10958;50.892;3.992;2023-02-15T12:08:21;10.60;99.90
21592;DHT22;10958;50.892;3.992;2023-02-15T12:11:00;10.60;99.90
21592;DHT22;10958;50.892;3.992;2023-02-15T12:13:30;10.70;99.90
21592;DHT22;10958;50.892;3.992;2023-02-15T12:15:57;10.80;99.90
21592;DHT22;10958;50.892;3.992;2023-02-15T12:18:41;10.60;99.90
21592;DHT22;10958;50.892;3.992;2023-02-15T12:21:15;10.70;99.90
21592;DHT22;10958;50.892;3.992;2023-02-15T12:23:52;10.80;99.90
21592;DHT22;10958;50.892;3.992;2023-02-15T12:26:30;11.00;99.90
21592;DHT22;10958;50.892;3.992;2023-02-15T12:28:59;11.00;99.90
21592;DHT22;10958;50.892;3.992;2023-02-15T12:31:32;11.20;99.90
21592;DHT22;10958;50.892;3.992;2023-02-15T12:34:07;11.00;99.90
21592;DHT22;10958;50.892;3.992;2023-02-15T12:36:50;11.20;99.90
21592;DHT22;10958;50.892;3.992;2023-02-15T12:39:27;11.20;99.90
21592;DHT22;10958;50.892;3.992;2023-02-15T12:41:57;11.30;99.90
21592;DHT22;10958;50.892;3.992;2023-02-15T12:44:33;11.30;99.90
21592;DHT22;10958;50.892;3.992;2023-02-15T12:47:04;11.40;99.90
21592;DHT22;10958;50.892;3.992;2023-02-15T12:49:32;11.50;99.90
21592;DHT22;10958;50.892;3.992;2023-02-15T12:52:03;11.50;99.90
21592;DHT22;10958;50.892;3.992;2023-02-15T12:54:40;11.70;99.90
21592;DHT22;10958;50.892;3.992;2023-02-15T13:00:00;11.80;99.90
21592;DHT22;10958;50.892;3.992;2023-02-15T13:02:46;12.00;99.90
21592;DHT22;10958;50.892;3.992;2023-02-15T13:05:38;11.90;99.90
21592;DHT22;10958;50.892;3.992;2023-02-15T13:08:19;11.80;99.90
21592;DHT22;10958;50.892;3.992;2023-02-15T13:11:07;11.70;99.90
21592;DHT22;10958;50.892;3.992;2023-02-15T13:13:51;12.00;99.90
21592;DHT22;10958;50.892;3.992;2023-02-15T13:16:42;12.10;99.90
21592;DHT22;10958;50.892;3.992;2023-02-15T13:19:34;12.20;99.90
21592;DHT22;10958;50.892;3.992;2023-02-15T13:22:06;12.20;99.90
21592;DHT22;10958;50.892;3.992;2023-02-15T13:24:40;12.30;99.90
21592;DHT22;10958;50.892;3.992;2023-02-15T13:27:14;12.50;99.90
21592;DHT22;10958;50.892;3.992;2023-02-15T13:29:49;12.70;99.90
21592;DHT22;10958;50.892;3.992;2023-02-15T13:32:34;12.80;99.90
21592;DHT22;10958;50.892;3.992;2023-02-15T13:35:04;12.70;99.90
21592;DHT22;10958;50.892;3.992;2023-02-15T13:40:18;12.70;99.90
21592;DHT22;10958;50.892;3.992;2023-02-15T13:42:53;12.80;99.90
21592;DHT22;10958;50.892;3.992;2023-02-15T13:45:55;12.70;99.90
21592;DHT22;10958;50.892;3.992;2023-02-15T13:48:51;12.70;99.90
21592;DHT22;10958;50.892;3.992;2023-02-15T13:51:49;12.60;99.90
21592;DHT22;10958;50.892;3.992;2023-02-15T13:57:05;12.50;99.90
21592;DHT22;10958;50.892;3.992;2023-02-15T14:12:37;12.50;99.90
21592;DHT22;10958;50.892;3.992;2023-02-15T14:15:22;12.40;99.90
21592;DHT22;10958;50.892;3.992;2023-02-15T14:21:03;12.30;99.90
21592;DHT22;10958;50.892;3.992;2023-02-15T14:27:14;12.50;99.90
21592;DHT22;10958;50.892;3.992;2023-02-15T14:29:49;12.50;99.90
21592;DHT22;10958;50.892;3.992;2023-02-15T14:35:00;12.30;99.90
21592;DHT22;10958;50.892;3.992;2023-02-15T14:46:24;12.20;99.90
21592;DHT22;10958;50.892;3.992;2023-02-15T14:48:56;12.30;99.90
21592;DHT22;10958;50.892;3.992;2023-02-15T14:57:25;12.30;99.90
21592;DHT22;10958;50.892;3.992;2023-02-15T14:59:43;12.30;99.90
21592;DHT22;10958;50.892;3.992;2023-02-15T15:02:19;12.30;99.90
21592;DHT22;10958;50.892;3.992;2023-02-15T15:04:55;12.30;99.90
21592;DHT22;10958;50.892;3.992;2023-02-15T15:07:36;12.20;99.90
21592;DHT22;10958;50.892;3.992;2023-02-15T15:12:49;12.30;99.90
21592;DHT22;10958;50.892;3.992;2023-02-15T15:18:06;12.30;99.90
21592;DHT22;10958;50.892;3.992;2023-02-15T15:32:10;12.40;99.90
21592;DHT22;10958;50.892;3.992;2023-02-15T15:34:18;12.20;99.90
21592;DHT22;10958;50.892;3.992;2023-02-15T15:42:29;12.20;99.90
21592;DHT22;10958;50.892;3.992;2023-02-15T15:48:30;12.10;99.90
21592;DHT22;10958;50.892;3.992;2023-02-15T15:51:00;12.00;99.90
21592;DHT22;10958;50.892;3.992;2023-02-15T15:53:29;12.00;99.90
21592;DHT22;10958;50.892;3.992;2023-02-15T15:56:04;11.90;99.90
21592;DHT22;10958;50.892;3.992;2023-02-15T15:58:31;11.80;99.90
21592;DHT22;10958;50.892;3.992;2023-02-15T16:01:06;11.70;99.90
21592;DHT22;10958;50.892;3.992;2023-02-15T16:03:34;11.50;99.90
21592;DHT22;10958;50.892;3.992;2023-02-15T16:06:01;11.40;99.90
21592;DHT22;10958;50.892;3.992;2023-02-15T16:08:33;11.30;99.90
21592;DHT22;10958;50.892;3.992;2023-02-15T16:11:15;11.30;99.90
21592;DHT22;10958;50.892;3.992;2023-02-15T16:13:42;11.30;99.90
21592;DHT22;10958;50.892;3.992;2023-02-15T16:16:12;11.30;99.90
21592;DHT22;10958;50.892;3.992;2023-02-15T16:18:38;11.50;99.90
21592;DHT22;10958;50.892;3.992;2023-02-15T16:21:16;11.60;99.90
21592;DHT22;10958;50.892;3.992;2023-02-15T16:23:56;11.60;99.90
21592;DHT22;10958;50.892;3.992;2023-02-15T16:29:26;11.40;99.90
21592;DHT22;10958;50.892;3.992;2023-02-15T16:34:28;11.40;99.90
21592;DHT22;10958;50.892;3.992;2023-02-15T16:37:17;11.40;99.90
21592;DHT22;10958;50.892;3.992;2023-02-15T16:39:44;11.40;99.90
21592;DHT22;10958;50.892;3.992;2023-02-15T16:42:11;11.30;99.90
21592;DHT22;10958;50.892;3.992;2023-02-15T16:44:40;11.20;99.90
21592;DHT22;10958;50.892;3.992;2023-02-15T16:47:18;11.30;99.90
21592;DHT22;10958;50.892;3.992;2023-02-15T16:49:47;11.20;99.90
21592;DHT22;10958;50.892;3.992;2023-02-15T16:52:20;11.20;99.90
21592;DHT22;10958;50.892;3.992;2023-02-15T16:54:49;11.00;99.90
21592;DHT22;10958;50.892;3.992;2023-02-15T16:57:20;10.90;99.90
21592;DHT22;10958;50.892;3.992;2023-02-15T16:59:48;11.00;99.90
21592;DHT22;10958;50.892;3.992;2023-02-15T17:02:22;10.90;99.90
21592;DHT22;10958;50.892;3.992;2023-02-15T17:07:49;10.80;99.90
21592;DHT22;10958;50.892;3.992;2023-02-15T17:10:34;10.60;99.90
21592;DHT22;10958;50.892;3.992;2023-02-15T17:13:21;10.50;99.90
21592;DHT22;10958;50.892;3.992;2023-02-15T17:18:31;10.50;99.90
21592;DHT22;10958;50.892;3.992;2023-02-15T17:21:12;10.60;99.90
21592;DHT22;10958;50.892;3.992;2023-02-15T17:23:44;10.60;99.90
21592;DHT22;10958;50.892;3.992;2023-02-15T17:26:22;10.60;99.90
21592;DHT22;10958;50.892;3.992;2023-02-15T17:28:55;10.50;99.90
21592;DHT22;10958;50.892;3.992;2023-02-15T17:31:31;10.40;99.90
21592;DHT22;10958;50.892;3.992;2023-02-15T17:34:00;10.50;99.90
21592;DHT22;10958;50.892;3.992;2023-02-15T17:36:28;10.40;99.90
21592;DHT22;10958;50.892;3.992;2023-02-15T17:41:32;10.20;99.90
21592;DHT22;10958;50.892;3.992;2023-02-15T17:44:00;10.30;99.90
21592;DHT22;10958;50.892;3.992;2023-02-15T17:46:30;10.30;99.90
21592;DHT22;10958;50.892;3.992;2023-02-15T17:49:01;10.20;99.90
21592;DHT22;10958;50.892;3.992;2023-02-15T17:51:30;10.30;99.90
21592;DHT22;10958;50.892;3.992;2023-02-15T17:53:56;10.40;99.90
21592;DHT22;10958;50.892;3.992;2023-02-15T17:56:40;10.30;99.90
21592;DHT22;10958;50.892;3.992;2023-02-15T17:59:07;10.20;99.90
21592;DHT22;10958;50.892;3.992;2023-02-15T18:01:47;10.00;99.90
21592;DHT22;10958;50.892;3.992;2023-02-15T18:04:34;10.00;99.90
21592;DHT22;10958;50.892;3.992;2023-02-15T18:07:20;9.90;99.90
21592;DHT22;10958;50.892;3.992;2023-02-15T18:10:17;9.90;99.90
21592;DHT22;10958;50.892;3.992;2023-02-15T18:13:02;9.90;99.90
21592;DHT22;10958;50.892;3.992;2023-02-15T18:15:28;9.90;99.90
21592;DHT22;10958;50.892;3.992;2023-02-15T18:17:55;9.90;99.90
21592;DHT22;10958;50.892;3.992;2023-02-15T18:20:27;9.80;99.90
21592;DHT22;10958;50.892;3.992;2023-02-15T18:22:53;9.70;99.90
21592;DHT22;10958;50.892;3.992;2023-02-15T18:25:21;9.70;99.90
21592;DHT22;10958;50.892;3.992;2023-02-15T18:27:49;9.80;99.90
21592;DHT22;10958;50.892;3.992;2023-02-15T18:30:23;9.70;99.90
21592;DHT22;10958;50.892;3.992;2023-02-15T18:32:51;9.70;99.90
21592;DHT22;10958;50.892;3.992;2023-02-15T18:35:20;9.80;99.90
21592;DHT22;10958;50.892;3.992;2023-02-15T18:37:47;9.70;99.90
21592;DHT22;10958;50.892;3.992;2023-02-15T18:40:19;9.60;99.90
21592;DHT22;10958;50.892;3.992;2023-02-15T18:42:46;9.60;99.90
21592;DHT22;10958;50.892;3.992;2023-02-15T18:45:18;9.50;99.90
21592;DHT22;10958;50.892;3.992;2023-02-15T18:47:45;9.50;99.90
21592;DHT22;10958;50.892;3.992;2023-02-15T18:50:12;9.50;99.90
21592;DHT22;10958;50.892;3.992;2023-02-15T18:52:38;9.50;99.90
21592;DHT22;10958;50.892;3.992;2023-02-15T18:55:17;9.50;99.90
21592;DHT22;10958;50.892;3.992;2023-02-15T18:57:46;9.50;99.90
21592;DHT22;10958;50.892;3.992;2023-02-15T19:02:50;9.50;99.90
21592;DHT22;10958;50.892;3.992;2023-02-15T19:05:16;9.50;99.90
21592;DHT22;10958;50.892;3.992;2023-02-15T19:07:43;9.50;99.90
21592;DHT22;10958;50.892;3.992;2023-02-15T19:10:15;9.50;99.90
21592;DHT22;10958;50.892;3.992;2023-02-15T19:12:43;9.40;99.90